createdAt,value
2018-10-06T00:02:05.996Z,4.67
2018-10-06T00:07:09.241Z,4.33
2018-10-06T00:12:12.473Z,3.90
2018-10-06T00:17:15.724Z,3.90
2018-10-06T00:22:18.981Z,4.73
2018-10-06T00:27:22.331Z,4.80
2018-10-06T00:32:26.148Z,4.43
2018-10-06T00:37:29.352Z,4.30
2018-10-06T00:42:32.628Z,5.27
2018-10-06T00:47:35.872Z,4.27
2018-10-06T00:52:39.112Z,5.10
2018-10-06T00:57:42.348Z,6.07
2018-10-06T01:02:45.588Z,6.30
2018-10-06T01:07:48.819Z,5.40
2018-10-06T01:12:52.075Z,5.40
2018-10-06T01:17:55.324Z,5.87
2018-10-06T01:22:58.520Z,5.70
2018-10-06T01:28:02.140Z,5.77
2018-10-06T01:33:05.347Z,6.07
2018-10-06T01:38:08.567Z,5.60
2018-10-06T01:43:11.820Z,5.90
2018-10-06T01:48:15.043Z,5.47
2018-10-06T01:53:18.247Z,6.27
2018-10-06T01:58:21.467Z,4.60
2018-10-06T02:03:24.686Z,5.30
2018-10-06T02:08:27.892Z,5.53
2018-10-06T02:13:31.101Z,6.40
2018-10-06T02:18:34.325Z,6.47
2018-10-06T02:23:37.580Z,5.67
2018-10-06T02:28:40.831Z,5.70
2018-10-06T02:33:44.059Z,5.90
2018-10-06T02:38:47.246Z,5.50
2018-10-06T02:43:50.503Z,5.70
2018-10-06T02:48:53.703Z,5.63
2018-10-06T02:53:56.945Z,6.13
2018-10-06T02:59:00.180Z,6.13
2018-10-06T03:04:03.395Z,5.80
2018-10-06T03:09:07.993Z,5.83
2018-10-06T03:14:11.205Z,5.97
2018-10-06T03:19:14.411Z,6.30
2018-10-06T03:24:17.630Z,6.00
2018-10-06T03:29:20.863Z,6.40
2018-10-06T03:34:24.060Z,5.97
2018-10-06T03:39:27.263Z,6.03
2018-10-06T03:44:30.491Z,6.17
2018-10-06T03:49:33.771Z,5.63
2018-10-06T03:54:36.963Z,6.53
2018-10-06T03:59:40.179Z,7.77
2018-10-06T04:04:43.399Z,6.73
2018-10-06T04:09:46.611Z,6.10
2018-10-06T04:14:49.818Z,6.77
2018-10-06T04:19:53.044Z,6.00
2018-10-06T04:24:56.254Z,6.37
2018-10-06T04:29:59.449Z,6.13
2018-10-06T04:35:02.680Z,7.43
2018-10-06T04:40:05.910Z,7.60
2018-10-06T04:45:09.164Z,6.50
2018-10-06T04:50:12.393Z,6.47
2018-10-06T04:55:15.620Z,5.90
2018-10-06T05:00:18.829Z,6.43
2018-10-06T05:05:22.044Z,6.30
2018-10-06T05:10:25.268Z,6.43
2018-10-06T05:15:28.483Z,6.73
2018-10-06T05:20:31.693Z,5.47
2018-10-06T05:25:35.001Z,6.47
2018-10-06T05:30:38.211Z,6.50
2018-10-06T05:35:41.416Z,5.70
2018-10-06T05:40:44.632Z,6.00
2018-10-06T05:45:47.842Z,5.40
2018-10-06T05:50:51.065Z,6.57
2018-10-06T05:55:54.273Z,6.17
2018-10-06T06:00:57.484Z,5.90
2018-10-06T06:06:00.730Z,6.87
2018-10-06T06:11:03.949Z,6.57
2018-10-06T06:16:07.200Z,5.60
2018-10-06T06:21:10.413Z,6.20
2018-10-06T06:26:13.641Z,5.80
2018-10-06T06:31:16.892Z,5.20
2018-10-06T06:36:20.080Z,4.90
2018-10-06T06:41:23.295Z,4.90
2018-10-06T06:46:26.524Z,4.90
2018-10-06T06:51:29.735Z,4.30
2018-10-06T06:56:32.923Z,3.93
2018-10-06T07:01:36.139Z,4.00
2018-10-06T07:06:39.359Z,4.27
2018-10-06T07:11:42.591Z,4.50
2018-10-06T07:16:46.544Z,4.13
2018-10-06T07:21:49.955Z,4.83
2018-10-06T07:26:53.176Z,3.30
2018-10-06T07:31:56.406Z,4.13
2018-10-06T07:36:59.632Z,3.50
2018-10-06T07:42:02.844Z,4.47
2018-10-06T07:47:06.074Z,3.80
2018-10-06T07:52:09.390Z,3.70
2018-10-06T07:57:12.597Z,3.73
2018-10-06T08:02:15.992Z,3.40
2018-10-06T08:07:19.217Z,3.27
2018-10-06T08:12:22.593Z,2.97
2018-10-06T08:17:26.012Z,3.43
2018-10-06T08:22:29.286Z,6.50
2018-10-06T08:27:32.709Z,3.40
2018-10-06T08:32:35.960Z,4.27
2018-10-06T08:37:39.204Z,4.53
2018-10-06T08:42:42.563Z,3.90
2018-10-06T08:47:45.764Z,4.27
2018-10-06T08:52:48.970Z,3.40
2018-10-06T08:57:52.191Z,4.37
2018-10-06T09:02:55.395Z,3.47
2018-10-06T09:07:58.591Z,3.70
2018-10-06T09:13:01.794Z,2.70
2018-10-06T09:18:05.015Z,3.13
2018-10-06T09:23:08.264Z,3.20
2018-10-06T09:28:11.546Z,3.57
2018-10-06T09:33:14.700Z,3.20
2018-10-06T09:38:17.935Z,3.63
2018-10-06T09:43:21.198Z,3.90
2018-10-06T09:48:24.453Z,3.17
2018-10-06T09:53:27.655Z,3.07
2018-10-06T09:58:30.882Z,3.30
2018-10-06T10:03:39.503Z,2.90
2018-10-06T10:08:42.731Z,2.73
2018-10-06T10:13:46.023Z,3.37
2018-10-06T10:18:49.263Z,2.80
2018-10-06T10:23:52.498Z,2.87
2018-10-06T10:28:55.773Z,3.50
2018-10-06T10:33:58.899Z,2.80
2018-10-06T10:39:02.159Z,2.67
2018-10-06T10:44:05.577Z,2.40
2018-10-06T10:49:08.616Z,2.50
2018-10-06T10:54:11.860Z,2.43
2018-10-06T10:59:15.115Z,2.53
2018-10-06T11:04:18.311Z,2.73
2018-10-06T11:09:21.520Z,3.20
2018-10-06T11:14:24.743Z,2.13
2018-10-06T11:19:27.935Z,3.00
2018-10-06T11:24:31.163Z,2.93
2018-10-06T11:29:34.379Z,2.50
2018-10-06T11:34:37.606Z,2.10
2018-10-06T11:39:40.818Z,2.50
2018-10-06T11:44:44.037Z,2.40
2018-10-06T11:49:47.353Z,2.30
2018-10-06T11:54:50.528Z,2.40
2018-10-06T11:59:53.784Z,2.10
2018-10-06T12:41:40.647Z,2.50
2018-10-06T12:46:43.869Z,3.03
2018-10-06T12:51:47.093Z,2.60
2018-10-06T12:56:50.295Z,2.90
2018-10-06T13:01:53.490Z,2.30
2018-10-06T13:06:56.747Z,1.90
2018-10-06T13:12:00.158Z,1.90
2018-10-06T13:17:03.168Z,2.47
2018-10-06T13:22:06.351Z,2.23
2018-10-06T13:27:09.560Z,2.37
2018-10-06T13:32:12.768Z,2.30
2018-10-06T13:37:16.009Z,2.50
2018-10-06T13:42:19.223Z,2.30
2018-10-06T13:47:22.535Z,2.27
2018-10-06T13:52:25.763Z,2.87
2018-10-06T13:57:29.007Z,2.37
2018-10-06T14:02:32.237Z,6.50
2018-10-06T14:07:35.683Z,3.07
2018-10-06T14:12:41.297Z,2.50
2018-10-06T14:17:44.663Z,2.63
2018-10-06T14:22:47.891Z,2.43
2018-10-06T14:27:51.108Z,2.43
2018-10-06T14:32:54.351Z,2.27
2018-10-06T14:37:57.553Z,2.17
2018-10-06T14:43:00.747Z,2.17
2018-10-06T14:48:03.959Z,3.00
2018-10-06T14:53:07.258Z,2.60
2018-10-06T14:58:10.726Z,2.67
2018-10-06T15:12:49.008Z,6.42
2018-10-06T15:17:52.228Z,4.27
2018-10-06T15:22:55.716Z,3.17
2018-10-06T15:28:03.820Z,2.80
2018-10-06T15:33:07.120Z,3.30
2018-10-06T15:38:10.316Z,2.63
2018-10-06T15:43:13.553Z,2.93
2018-10-06T15:48:16.775Z,2.40
2018-10-06T15:53:20.000Z,2.50
2018-10-06T15:58:23.185Z,3.53
2018-10-06T16:03:26.466Z,3.50
2018-10-06T16:08:29.800Z,3.97
2018-10-06T16:13:33.000Z,3.93
2018-10-06T16:18:36.219Z,4.20
2018-10-06T16:23:39.435Z,3.60
2018-10-06T16:28:43.127Z,5.53
2018-10-06T16:33:46.336Z,4.40
2018-10-06T16:38:49.548Z,4.00
2018-10-06T16:43:52.918Z,4.97
2018-10-06T16:48:56.191Z,4.57
2018-10-06T16:53:59.432Z,4.50
2018-10-06T16:59:02.684Z,4.40
2018-10-06T17:04:05.948Z,5.00
2018-10-06T17:09:10.435Z,3.60
2018-10-06T17:14:13.639Z,3.80
2018-10-06T17:19:16.866Z,4.10
2018-10-06T17:24:20.125Z,3.53
2018-10-06T17:29:23.322Z,3.23
2018-10-06T17:34:26.597Z,3.83
2018-10-06T17:39:29.826Z,3.40
2018-10-06T17:44:33.072Z,3.93
2018-10-06T17:49:36.394Z,4.33
2018-10-06T17:54:39.567Z,3.57
2018-10-06T17:59:42.807Z,3.70
2018-10-06T18:04:46.430Z,4.20
2018-10-06T18:09:49.672Z,3.47
2018-10-06T18:14:53.060Z,3.40
2018-10-06T18:19:56.455Z,3.23
2018-10-06T18:24:59.795Z,3.30
2018-10-06T18:30:03.253Z,3.97
2018-10-06T18:35:06.628Z,3.70
2018-10-06T18:40:09.983Z,3.60
2018-10-06T18:45:13.412Z,4.30
2018-10-06T18:50:16.859Z,3.50
2018-10-06T18:55:20.198Z,3.33
2018-10-06T19:00:23.588Z,3.50
2018-10-06T19:05:26.987Z,3.60
2018-10-06T19:10:30.374Z,3.00
2018-10-06T19:15:33.607Z,3.50
2018-10-06T19:20:36.958Z,3.30
2018-10-06T19:25:40.282Z,3.70
2018-10-06T19:30:43.688Z,3.23
2018-10-06T19:35:46.975Z,3.40
2018-10-06T19:40:51.504Z,3.23
2018-10-06T19:45:54.735Z,2.70
2018-10-06T19:50:58.044Z,3.30
2018-10-06T19:56:01.255Z,3.60
2018-10-06T20:01:04.593Z,2.87
2018-10-06T20:06:07.812Z,3.03
2018-10-06T20:11:11.038Z,2.90
2018-10-06T20:16:14.271Z,2.43
2018-10-06T20:21:19.271Z,3.23
2018-10-06T20:26:22.577Z,3.00
2018-10-06T20:31:25.788Z,2.70
2018-10-06T20:36:29.052Z,3.50
2018-10-06T20:41:32.297Z,2.63
2018-10-06T20:46:35.537Z,3.00
2018-10-06T20:51:38.824Z,3.33
2018-10-06T20:56:42.167Z,3.17
2018-10-06T21:01:45.399Z,3.37
2018-10-06T21:06:48.627Z,2.80
2018-10-06T21:11:51.849Z,3.23
2018-10-06T21:16:55.139Z,3.17
2018-10-06T21:21:58.466Z,2.93
2018-10-06T21:27:01.748Z,3.20
2018-10-06T21:32:04.951Z,3.53
2018-10-06T21:37:08.243Z,2.97
2018-10-06T21:42:11.436Z,3.33
2018-10-06T21:47:14.697Z,2.87
2018-10-06T21:52:17.948Z,3.27
2018-10-06T21:57:21.277Z,3.40
2018-10-06T22:02:24.511Z,3.63
2018-10-06T22:07:27.780Z,3.30
2018-10-06T22:12:31.011Z,3.23
2018-10-06T22:17:34.267Z,3.73
2018-10-06T22:22:37.511Z,3.23
2018-10-06T22:27:40.858Z,3.30
2018-10-06T22:32:44.103Z,2.70
2018-10-06T22:37:47.380Z,3.10
2018-10-06T22:42:50.652Z,3.67
2018-10-06T22:47:53.881Z,2.73
2018-10-06T22:52:57.120Z,3.67
2018-10-06T22:58:00.332Z,3.30
2018-10-06T23:03:03.621Z,3.67
2018-10-06T23:08:06.844Z,3.67
2018-10-06T23:13:10.067Z,3.70
2018-10-06T23:18:13.291Z,4.37
2018-10-06T23:23:16.555Z,3.73
2018-10-06T23:28:19.771Z,3.50
2018-10-06T23:33:22.980Z,5.03
2018-10-06T23:38:26.299Z,4.87
2018-10-06T23:43:29.557Z,4.87
2018-10-06T23:48:32.808Z,5.30
2018-10-06T23:53:36.227Z,5.20
2018-10-06T23:58:39.432Z,6.00
